Time;durP1;ratioP1;P1;durP2;ratioP2;P2;SDS_P1;SDS_P2;PMS_P1;PMS_P2;Temp;Humidity;BMP_temperature;BMP_pressure;BME280_temperature;BME280_humidity;BME280_pressure;Samples;Min_cycle;Max_cycle;Signal;HPM_P1;HPM_P2
2022/09/10 00:00:38;;;;;;;5.18;2.80;;;;;;;15.89;100.00;99658.59;4991022;28;20038;-85
2022/09/10 00:03:04;;;;;;;4.65;2.78;;;;;;;15.88;100.00;99664.66;4991171;28;20057;-84
2022/09/10 00:05:30;;;;;;;4.20;2.58;;;;;;;15.92;100.00;99665.25;4989268;28;20117;-77
2022/09/10 00:07:55;;;;;;;6.43;2.45;;;;;;;15.96;100.00;99660.22;4990919;28;20117;-77
2022/09/10 00:10:21;;;;;;;4.05;2.60;;;;;;;15.95;100.00;99658.66;4990742;28;20073;-77
2022/09/10 00:12:47;;;;;;;3.95;2.30;;;;;;;15.92;100.00;99648.47;4973433;28;20489;-77
2022/09/10 00:15:13;;;;;;;4.18;2.45;;;;;;;15.89;100.00;99639.03;4990624;28;20046;-77
2022/09/10 00:17:39;;;;;;;4.13;2.30;;;;;;;15.89;100.00;99641.81;4989139;28;20046;-77
2022/09/10 00:20:05;;;;;;;3.65;2.08;;;;;;;15.90;100.00;99656.53;4972455;28;20043;-77
2022/09/10 00:22:32;;;;;;;4.80;2.25;;;;;;;15.94;100.00;99657.13;4977418;28;20086;-77
2022/09/10 00:24:58;;;;;;;3.33;2.10;;;;;;;15.92;100.00;99651.25;4985029;28;20163;-77
2022/09/10 00:27:26;;;;;;;3.35;2.35;;;;;;;15.87;100.00;99658.28;4991191;28;20057;-77
2022/09/10 00:29:53;;;;;;;3.97;2.00;;;;;;;15.94;100.00;99671.09;4990811;28;20644;-77
2022/09/10 00:32:20;;;;;;;4.25;2.30;;;;;;;15.90;100.00;99676.13;4973199;28;20549;-77
2022/09/10 00:34:46;;;;;;;2.30;1.90;;;;;;;15.88;100.00;99687.03;4988061;28;20039;-77
2022/09/10 00:37:13;;;;;;;3.38;2.03;;;;;;;15.86;100.00;99685.47;4957462;28;20101;-77
2022/09/10 00:39:39;;;;;;;2.58;2.00;;;;;;;15.92;100.00;99687.63;4990278;28;20076;-77
2022/09/10 00:42:05;;;;;;;4.07;2.00;;;;;;;15.90;100.00;99681.72;4989782;28;20078;-77
2022/09/10 00:44:39;;;;;;;3.22;2.00;;;;;;;15.90;100.00;99681.72;4991374;28;20073;-77
2022/09/10 00:47:08;;;;;;;3.75;2.28;;;;;;;15.91;100.00;99674.88;4990676;28;20047;-77
2022/09/10 00:49:41;;;;;;;3.00;1.83;;;;;;;15.89;100.00;99671.81;4973354;28;20112;-77
2022/09/10 00:52:06;;;;;;;2.92;1.75;;;;;;;15.81;100.00;99669.38;4972405;28;20424;-77
2022/09/10 00:54:33;;;;;;;2.17;1.88;;;;;;;15.81;100.00;99677.75;4973086;28;20034;-77
2022/09/10 00:57:02;;;;;;;4.25;1.80;;;;;;;15.80;100.00;99673.44;4973349;28;20070;-77
2022/09/10 00:59:29;;;;;;;3.20;1.75;;;;;;;15.79;100.00;99676.72;4980216;28;20046;-77
2022/09/10 01:05:05;;;;;;;3.42;1.85;;;;;;;15.80;100.00;99659.47;4970767;28;20537;-80
2022/09/10 01:07:32;;;;;;;3.58;1.77;;;;;;;15.77;100.00;99657.59;4952947;28;20113;-79
2022/09/10 01:10:01;;;;;;;2.50;1.85;;;;;;;15.78;100.00;99667.53;4969906;28;20049;-79
2022/09/10 01:12:49;;;;;;;2.92;1.90;;;;;;;15.70;100.00;99666.38;4970352;28;20035;-79
2022/09/10 01:15:39;;;;;;;3.33;2.00;;;;;;;15.70;100.00;99665.59;4973958;28;20047;-78
2022/09/10 01:18:46;;;;;;;3.33;2.25;;;;;;;15.73;100.00;99668.22;4972701;28;20078;-79
2022/09/10 01:21:22;;;;;;;3.00;2.00;;;;;;;15.73;100.00;99643.03;4962563;28;20081;-78
2022/09/10 01:24:18;;;;;;;3.13;2.00;;;;;;;15.72;100.00;99654.72;4955365;28;20043;-78
2022/09/10 01:26:50;;;;;;;3.15;2.20;;;;;;;15.65;100.00;99644.69;4949936;28;20051;-79
2022/09/10 01:29:26;;;;;;;2.45;2.00;;;;;;;15.63;100.00;99638.03;4970617;28;20049;-78
2022/09/10 01:32:07;;;;;;;3.35;1.83;;;;;;;15.62;100.00;99651.25;4925957;28;20047;-78
2022/09/10 01:34:40;;;;;;;2.85;1.77;;;;;;;15.63;100.00;99655.59;4956307;28;20489;-78
2022/09/10 01:37:11;;;;;;;3.05;1.92;;;;;;;15.62;100.00;99656.81;4973324;28;20043;-79
2022/09/10 01:39:37;;;;;;;2.92;2.20;;;;;;;15.60;100.00;99655.78;4955117;28;20058;-79
2022/09/10 01:42:04;;;;;;;4.60;2.08;;;;;;;15.56;100.00;99639.19;4942560;28;20043;-96
2022/09/10 01:44:43;;;;;;;2.55;2.10;;;;;;;15.59;100.00;99646.63;4991805;28;20078;-96
2022/09/10 01:47:16;;;;;;;4.43;2.28;;;;;;;15.53;100.00;99644.97;4940360;29;20054;-96
2022/09/10 01:49:53;;;;;;;3.43;2.10;;;;;;;15.48;100.00;99640.81;4951533;28;20038;-96
2022/09/10 01:52:27;;;;;;;2.67;2.10;;;;;;;15.47;100.00;99647.63;4976502;28;20061;-96
2022/09/10 01:55:08;;;;;;;3.45;2.47;;;;;;;15.46;100.00;99648.88;4975354;28;20141;-96
2022/09/10 01:57:37;;;;;;;;;;;;;;;15.48;100.00;99649.19;4960130;29;20057;-96
2022/09/10 02:00:09;;;;;;;3.63;2.15;;;;;;;15.49;100.00;99645.13;4974827;28;19972;-78
2022/09/10 02:02:59;;;;;;;3.13;2.00;;;;;;;15.49;100.00;99639.53;4956146;28;20046;-79
2022/09/10 02:05:29;;;;;;;5.22;2.22;;;;;;;15.47;100.00;99642.03;4969749;28;20399;-78
2022/09/10 02:08:01;;;;;;;3.67;2.15;;;;;;;15.43;100.00;99647.03;4971769;28;20039;-78
2022/09/10 02:10:28;;;;;;;3.60;1.85;;;;;;;15.48;100.00;99637.22;4977083;28;20202;-78
2022/09/10 02:12:54;;;;;;;3.30;2.13;;;;;;;15.43;100.00;99635.09;4994111;28;20197;-78
2022/09/10 02:15:40;;;;;;;4.13;2.10;;;;;;;15.45;100.00;99641.00;4999119;28;20050;-78
2022/09/10 02:18:21;;;;;;;4.88;2.72;;;;;;;15.40;100.00;99642.44;4985161;28;20105;-95
2022/09/10 02:20:50;;;;;;;4.07;2.30;;;;;;;15.41;100.00;99641.16;4995947;28;20138;-96
2022/09/10 02:23:20;;;;;;;3.33;2.40;;;;;;;15.31;100.00;99634.88;4965995;28;20039;-96
2022/09/10 02:25:48;;;;;;;3.70;2.30;;;;;;;15.29;100.00;99634.59;4979560;28;20047;-96
2022/09/10 02:28:13;;;;;;;5.05;2.67;;;;;;;15.24;100.00;99635.28;5015594;28;20027;-96
2022/09/10 02:30:39;;;;;;;4.97;2.28;;;;;;;15.31;100.00;99639.69;4981596;28;20073;-93
2022/09/10 02:33:06;;;;;;;3.25;2.28;;;;;;;15.29;100.00;99642.19;4992686;28;20097;-96
2022/09/10 02:35:31;;;;;;;5.18;2.53;;;;;;;15.27;100.00;99622.34;4980094;28;20053;-96
2022/09/10 02:37:57;;;;;;;3.22;2.15;;;;;;;15.32;100.00;99630.06;4992406;28;20042;-78
2022/09/10 02:40:23;;;;;;;5.38;2.30;;;;;;;15.34;100.00;99633.94;5007473;28;20066;-78
2022/09/10 02:42:49;;;;;;;3.00;2.13;;;;;;;15.34;100.00;99624.75;4978504;28;20518;-78
2022/09/10 02:45:20;;;;;;;3.80;2.20;;;;;;;15.34;100.00;99621.97;5003265;28;20093;-78
2022/09/10 02:47:45;;;;;;;3.15;2.00;;;;;;;15.36;100.00;99625.06;4973402;28;20451;-78
2022/09/10 02:50:11;;;;;;;4.25;2.13;;;;;;;15.36;100.00;99630.66;4986248;28;20073;-78
2022/09/10 02:52:37;;;;;;;3.25;2.33;;;;;;;15.38;100.00;99637.31;4986994;28;20543;-78
2022/09/10 02:55:02;;;;;;;4.78;2.17;;;;;;;15.38;100.00;99634.50;5003483;28;20044;-78
2022/09/10 02:57:28;;;;;;;3.53;2.03;;;;;;;15.40;100.00;99632.03;4989213;28;20046;-96
2022/09/10 02:59:55;;;;;;;5.22;2.33;;;;;;;15.34;100.00;99616.38;5018177;28;20077;-96
2022/09/10 03:02:21;;;;;;;3.38;2.20;;;;;;;15.38;100.00;99628.16;5003270;28;20292;-96
2022/09/10 03:04:46;;;;;;;4.13;2.17;;;;;;;15.37;100.00;99623.78;4966948;28;20130;-96
2022/09/10 03:07:16;;;;;;;3.40;2.30;;;;;;;15.36;100.00;99622.28;4966012;28;20467;-95
2022/09/10 03:09:45;;;;;;;3.72;2.20;;;;;;;15.32;100.00;99619.69;4962427;28;20040;-96
2022/09/10 03:12:12;;;;;;;4.43;2.22;;;;;;;15.35;100.00;99617.94;4957545;28;20122;-96
2022/09/10 03:14:37;;;;;;;2.92;2.33;;;;;;;15.33;100.00;99618.41;4937912;29;20087;-79
2022/09/10 03:17:04;;;;;;;4.05;2.20;;;;;;;15.40;100.00;99622.88;4954622;28;20075;-96
2022/09/10 03:19:30;;;;;;;4.38;2.55;;;;;;;15.41;100.00;99627.19;4974171;28;20111;-96
2022/09/10 03:21:57;;;;;;;4.90;2.35;;;;;;;15.43;100.00;99624.69;4957355;29;20040;-96
2022/09/10 03:24:24;;;;;;;3.97;2.20;;;;;;;15.43;100.00;99612.72;4959979;29;20122;-96
2022/09/10 03:26:49;;;;;;;2.72;2.30;;;;;;;15.45;100.00;99611.00;4985645;28;20082;-96
2022/09/10 03:29:15;;;;;;;4.32;2.55;;;;;;;15.44;100.00;99603.88;4978995;28;20046;-96
2022/09/10 03:31:41;;;;;;;4.15;2.65;;;;;;;15.43;100.00;99602.34;4977798;28;20043;-95
2022/09/10 03:34:09;;;;;;;5.15;2.60;;;;;;;15.43;100.00;99601.56;4982320;28;20068;-96
2022/09/10 03:36:35;;;;;;;3.53;2.65;;;;;;;15.40;100.00;99597.72;4939663;28;20039;-78
2022/09/10 03:39:03;;;;;;;3.53;2.50;;;;;;;15.39;100.00;99593.38;4944108;28;20035;-78
2022/09/10 03:41:30;;;;;;;3.25;2.40;;;;;;;15.37;100.00;99604.25;4961484;28;20043;-78
2022/09/10 03:43:57;;;;;;;5.68;2.47;;;;;;;15.41;100.00;99616.78;4956100;28;20622;-78
2022/09/10 03:46:24;;;;;;;4.40;2.60;;;;;;;15.44;100.00;99625.47;4965898;28;20047;-78
2022/09/10 03:48:50;;;;;;;3.90;2.92;;;;;;;15.31;100.00;99623.72;4967408;28;20047;-78
2022/09/10 03:51:20;;;;;;;3.63;2.70;;;;;;;15.34;100.00;99633.94;4951881;28;20083;-95
2022/09/10 03:53:45;;;;;;;7.43;3.17;;;;;;;15.36;100.00;99630.66;4961674;28;20090;-78
2022/09/10 03:56:11;;;;;;;5.07;2.72;;;;;;;15.39;100.00;99640.88;4930064;29;20038;-78
2022/09/10 03:58:36;;;;;;;4.97;2.80;;;;;;;15.34;100.00;99649.91;4967106;28;20190;-78
2022/09/10 04:01:03;;;;;;;3.97;2.53;;;;;;;15.36;100.00;99647.44;4984389;28;20047;-78
2022/09/10 04:03:30;;;;;;;3.58;2.55;;;;;;;15.34;100.00;99661.09;4951789;28;20523;-78
2022/09/10 04:05:57;;;;;;;4.60;2.58;;;;;;;15.32;100.00;99652.44;4951951;29;20044;-78
2022/09/10 04:08:23;;;;;;;7.07;2.55;;;;;;;15.29;100.00;99653.38;4951097;28;20572;-78
2022/09/10 04:10:50;;;;;;;4.00;2.50;;;;;;;15.27;100.00;99653.09;4966957;28;20489;-78
2022/09/10 04:13:15;;;;;;;3.08;2.30;;;;;;;15.27;100.00;99656.66;4952202;28;20047;-96
2022/09/10 04:15:44;;;;;;;3.53;2.40;;;;;;;15.27;100.00;99647.50;4961738;28;20042;-96
2022/09/10 04:18:11;;;;;;;5.90;3.10;;;;;;;15.21;100.00;99652.97;4944819;29;20042;-96
2022/09/10 04:20:37;;;;;;;4.70;2.60;;;;;;;15.27;100.00;99650.28;4954337;28;20389;-96
2022/09/10 04:23:09;;;;;;;7.55;2.70;;;;;;;15.26;100.00;99651.53;4971382;28;20054;-96
2022/09/10 04:25:36;;;;;;;5.25;2.95;;;;;;;15.17;100.00;99649.59;4954493;29;20137;-96
2022/09/10 04:28:02;;;;;;;5.03;3.08;;;;;;;15.19;100.00;99655.47;4954791;29;20066;-96
2022/09/10 04:30:29;;;;;;;4.43;3.58;;;;;;;15.13;100.00;99662.19;4955908;28;20451;-78
2022/09/10 04:32:55;;;;;;;4.85;2.97;;;;;;;15.16;100.00;99661.25;4969476;28;20114;-96
2022/09/10 04:35:21;;;;;;;5.95;3.40;;;;;;;15.12;100.00;99649.50;4941321;28;20036;-95
2022/09/10 04:37:47;;;;;;;4.40;3.60;;;;;;;15.07;100.00;99641.75;4974798;28;20039;-96
2022/09/10 04:40:13;;;;;;;4.38;3.60;;;;;;;15.06;100.00;99640.22;4971516;28;20213;-96
2022/09/10 04:42:38;;;;;;;6.45;3.80;;;;;;;15.13;100.00;99651.78;4991295;28;20019;-96
2022/09/10 04:45:05;;;;;;;6.28;3.58;;;;;;;15.19;100.00;99658.28;4977641;28;20035;-94
2022/09/10 04:47:32;;;;;;;5.53;3.67;;;;;;;15.18;100.00;99642.75;4979876;28;20030;-96
2022/09/10 04:49:58;;;;;;;6.13;3.63;;;;;;;15.24;100.00;99646.44;4978556;28;20065;-96
2022/09/10 04:52:26;;;;;;;4.65;3.45;;;;;;;15.37;100.00;99660.13;4988973;28;20400;-78
2022/09/10 04:54:52;;;;;;;4.68;3.55;;;;;;;15.37;100.00;99660.13;4970967;28;20522;-78
2022/09/10 04:57:20;;;;;;;6.50;3.58;;;;;;;15.38;100.00;99656.09;4970299;28;20046;-79
2022/09/10 04:59:46;;;;;;;5.72;3.83;;;;;;;15.46;100.00;99662.84;4955768;29;20044;-79
2022/09/10 05:02:13;;;;;;;4.95;3.30;;;;;;;15.45;100.00;99649.38;4969088;28;20556;-78
2022/09/10 05:04:38;;;;;;;6.18;3.70;;;;;;;15.49;100.00;99661.88;4968744;28;20178;-79
2022/09/10 05:07:04;;;;;;;4.05;3.40;;;;;;;15.55;100.00;99659.22;4954335;29;20129;-79
2022/09/10 05:09:32;;;;;;;4.45;3.30;;;;;;;15.59;100.00;99660.59;4954721;29;20097;-79
2022/09/10 05:12:00;;;;;;;4.95;3.13;;;;;;;15.63;100.00;99661.19;4980160;28;20038;-96
2022/09/10 05:14:26;;;;;;;4.25;3.20;;;;;;;15.67;100.00;99655.38;4963552;29;20060;-96
2022/09/10 05:16:52;;;;;;;4.28;3.30;;;;;;;15.70;100.00;99655.19;4987107;28;20042;-96
2022/09/10 05:19:17;;;;;;;5.22;3.17;;;;;;;15.75;100.00;99654.53;4972278;28;20039;-96
2022/09/10 05:21:57;;;;;;;4.95;3.05;;;;;;;15.78;100.00;99656.34;4975943;28;20039;-96
2022/09/10 05:24:23;;;;;;;6.90;3.42;;;;;;;15.82;100.00;99662.53;4981146;28;20053;-96
2022/09/10 05:26:50;;;;;;;4.70;2.90;;;;;;;15.88;100.00;99659.06;4969723;29;20039;-96
2022/09/10 05:29:16;;;;;;;3.45;2.80;;;;;;;15.83;100.00;99647.31;4960421;28;20151;-78
2022/09/10 05:31:41;;;;;;;4.15;3.00;;;;;;;15.89;100.00;99649.44;4962077;28;20045;-79
2022/09/10 05:34:08;;;;;;;5.35;2.92;;;;;;;15.98;100.00;99669.66;4951162;28;20460;-80
2022/09/10 05:36:35;;;;;;;4.00;3.00;;;;;;;15.99;100.00;99660.03;4952460;28;21102;-80
2022/09/10 05:39:02;;;;;;;5.97;3.20;;;;;;;15.98;100.00;99677.28;4952995;28;20130;-77
2022/09/10 05:41:30;;;;;;;3.75;2.90;;;;;;;16.01;100.00;99677.13;4917596;29;20055;-78
2022/09/10 05:43:57;;;;;;;4.50;2.72;;;;;;;16.04;100.00;99673.34;4955614;28;20047;-78
2022/09/10 05:46:23;;;;;;;4.53;2.90;;;;;;;16.06;100.00;99689.63;4953500;28;20035;-78
2022/09/10 05:48:53;;;;;;;4.38;2.60;;;;;;;16.11;100.00;99691.75;4952164;29;20079;-96
2022/09/10 05:51:19;;;;;;;6.10;2.90;;;;;;;16.09;100.00;99691.47;4987837;28;20059;-96
2022/09/10 05:53:46;;;;;;;4.68;2.88;;;;;;;16.10;100.00;99693.00;4950438;28;20054;-96
2022/09/10 05:56:11;;;;;;;4.13;2.92;;;;;;;16.07;100.00;99702.38;5005202;23;20050;-82
2022/09/10 05:58:39;;;;;;;11.40;3.25;;;;;;;16.10;100.00;99699.38;5013215;28;20517;-82
2022/09/10 06:01:06;;;;;;;4.72;3.15;;;;;;;16.11;100.00;99706.53;5013628;28;20068;-81
2022/09/10 06:03:34;;;;;;;4.95;2.60;;;;;;;16.13;100.00;99700.44;4988897;28;20045;-81
2022/09/10 06:06:00;;;;;;;3.58;2.83;;;;;;;16.06;100.00;99709.22;5020796;22;20084;-80
2022/09/10 06:08:33;;;;;;;5.13;2.83;;;;;;;16.16;100.00;99703.06;5013500;28;20081;-79
2022/09/10 06:11:05;;;;;;;3.60;2.40;;;;;;;16.30;100.00;99713.44;4994472;28;20065;-79
2022/09/10 06:13:39;;;;;;;3.37;2.60;;;;;;;16.40;100.00;99716.16;4995692;28;20054;-79
2022/09/10 06:16:06;;;;;;;3.47;2.70;;;;;;;16.28;100.00;99704.00;5025040;28;20339;-79
2022/09/10 06:18:32;;;;;;;3.53;2.30;;;;;;;16.33;100.00;99712.50;5027206;28;20029;-79
2022/09/10 06:21:07;;;;;;;3.45;2.20;;;;;;;16.47;100.00;99718.53;5024702;22;20132;-80
2022/09/10 06:23:35;;;;;;;2.47;2.25;;;;;;;16.53;100.00;99714.59;4956200;28;20127;-80
2022/09/10 06:26:12;;;;;;;4.68;2.60;;;;;;;16.50;100.00;99712.00;4977221;28;20042;-80
2022/09/10 06:28:39;;;;;;;5.68;2.50;;;;;;;16.59;100.00;99723.88;4943505;28;20134;-80
2022/09/10 06:31:06;;;;;;;6.22;2.50;;;;;;;16.62;100.00;99716.53;4963085;28;20116;-80
2022/09/10 06:33:34;;;;;;;5.15;2.40;;;;;;;16.67;100.00;99727.81;4991307;28;20050;-80
2022/09/10 06:36:01;;;;;;;3.55;2.20;;;;;;;16.81;100.00;99728.28;4973561;28;20034;-80
2022/09/10 06:38:29;;;;;;;3.95;1.92;;;;;;;16.87;100.00;99732.69;4960605;28;20054;-80
2022/09/10 06:40:58;;;;;;;3.63;1.98;;;;;;;16.90;100.00;99733.75;4976564;28;20042;-80
2022/09/10 06:43:24;;;;;;;4.50;2.10;;;;;;;16.94;100.00;99737.13;4970535;28;20053;-80
2022/09/10 06:46:18;;;;;;;3.60;2.20;;;;;;;16.93;100.00;99741.19;4967262;28;20038;-81
2022/09/10 06:48:59;;;;;;;3.83;2.10;;;;;;;16.90;100.00;99742.16;4968187;28;20574;-80
2022/09/10 06:51:28;;;;;;;2.92;2.20;;;;;;;16.96;100.00;99740.19;4989737;22;20100;-76
2022/09/10 06:53:54;;;;;;;3.15;2.10;;;;;;;16.95;100.00;99727.44;4950426;28;20042;-76
2022/09/10 06:56:21;;;;;;;2.65;2.03;;;;;;;16.95;100.00;99735.84;4982275;28;20448;-76
2022/09/10 06:58:48;;;;;;;2.80;1.92;;;;;;;17.07;100.00;99734.75;4972683;28;20050;-77
2022/09/10 07:01:17;;;;;;;5.00;2.28;;;;;;;17.25;100.00;99742.91;4965654;28;20500;-75
2022/09/10 07:03:47;;;;;;;3.83;2.10;;;;;;;17.43;100.00;99736.25;4955480;28;20050;-75
2022/09/10 07:06:15;;;;;;;4.22;2.28;;;;;;;17.44;100.00;99746.19;4949798;28;20050;-75
2022/09/10 07:08:42;;;;;;;3.90;2.40;;;;;;;17.42;100.00;99743.13;4949619;28;20291;-75
2022/09/10 07:11:12;;;;;;;4.65;2.25;;;;;;;17.51;100.00;99740.91;4964354;28;20082;-78
2022/09/10 07:13:39;;;;;;;4.72;2.10;;;;;;;17.47;100.00;99745.97;4954081;28;20187;-76
2022/09/10 07:16:05;;;;;;;3.53;2.20;;;;;;;17.42;100.00;99745.91;4971390;28;20057;-75
2022/09/10 07:18:32;;;;;;;4.13;2.20;;;;;;;17.51;100.00;99752.13;4949874;28;20046;-75
2022/09/10 07:21:08;;;;;;;4.03;2.13;;;;;;;17.85;100.00;99747.72;4962716;28;20038;-84
2022/09/10 07:23:34;;;;;;;4.30;2.10;;;;;;;18.24;100.00;99756.53;4969395;28;20089;-83
2022/09/10 07:26:08;;;;;;;3.63;2.10;;;;;;;18.27;100.00;99761.16;4970368;28;20034;-84
2022/09/10 07:28:38;;;;;;;4.40;2.40;;;;;;;18.57;100.00;99756.84;4970654;28;20065;-84
2022/09/10 07:31:21;;;;;;;3.17;1.92;;;;;;;18.93;100.00;99760.16;4939536;28;20043;-85
2022/09/10 07:33:48;;;;;;;3.17;2.00;;;;;;;19.03;100.00;99765.09;4955062;28;20437;-84
2022/09/10 07:36:16;;;;;;;3.38;2.20;;;;;;;19.38;100.00;99758.38;4950391;28;20178;-85
2022/09/10 07:38:44;;;;;;;3.60;2.00;;;;;;;19.61;100.00;99762.09;4953945;28;20477;-85
2022/09/10 07:41:12;;;;;;;3.78;1.88;;;;;;;19.52;100.00;99780.72;4953974;28;20042;-85
2022/09/10 07:43:38;;;;;;;4.60;1.90;;;;;;;19.86;100.00;99780.84;4953816;28;20161;-88
2022/09/10 07:46:05;;;;;;;4.93;1.80;;;;;;;19.91;100.00;99774.47;4970607;28;20050;-84
2022/09/10 07:48:33;;;;;;;4.47;1.98;;;;;;;20.20;100.00;99782.47;4968987;28;20047;-84
2022/09/10 07:51:01;;;;;;;2.85;1.80;;;;;;;20.50;100.00;99780.00;4966331;28;20079;-84
2022/09/10 07:53:27;;;;;;;3.00;2.00;;;;;;;20.65;100.00;99780.50;4951356;28;20062;-84
2022/09/10 07:56:04;;;;;;;2.33;1.60;;;;;;;20.99;96.19;99786.84;4965782;28;20497;-83
2022/09/10 07:58:34;;;;;;;2.38;1.98;;;;;;;20.81;96.68;99784.59;4965346;28;20081;-83
2022/09/10 08:01:08;;;;;;;2.40;1.42;;;;;;;20.98;94.03;99785.34;4949353;28;20040;-83
2022/09/10 08:03:35;;;;;;;3.38;1.63;;;;;;;20.50;96.47;99785.63;4940015;28;20042;-82
2022/09/10 08:06:02;;;;;;;5.00;1.50;;;;;;;20.60;97.14;99786.13;4924859;29;20136;-83
2022/09/10 08:08:32;;;;;;;2.45;1.63;;;;;;;20.79;95.95;99784.31;4965436;28;20106;-83
2022/09/10 08:11:06;;;;;;;3.63;1.40;;;;;;;21.19;93.52;99777.38;4949976;28;20559;-83
2022/09/10 08:13:35;;;;;;;2.80;1.42;;;;;;;21.48;87.96;99776.00;4934113;29;20054;-84
2022/09/10 08:16:04;;;;;;;3.17;1.35;;;;;;;21.40;89.25;99773.72;4949719;28;20102;-84
2022/09/10 08:18:30;;;;;;;3.15;1.50;;;;;;;21.60;91.38;99769.03;4933995;29;20090;-83
2022/09/10 08:20:58;;;;;;;3.08;1.35;;;;;;;21.44;88.18;99769.84;4965225;28;20101;-84
2022/09/10 08:23:25;;;;;;;2.60;1.33;;;;;;;21.34;88.54;99764.53;4938089;28;20036;-82
2022/09/10 08:25:51;;;;;;;1.92;1.40;;;;;;;21.59;86.54;99764.69;4968876;28;20126;-82
2022/09/10 08:28:23;;;;;;;2.97;1.30;;;;;;;;;;4986241;28;20117;-84
2022/09/10 08:31:07;;;;;;;1.80;1.40;;;;;;;21.48;84.56;99776.00;4962914;28;20051;-83
2022/09/10 08:33:39;;;;;;;1.95;1.40;;;;;;;21.61;84.28;99776.22;4968806;28;20035;-83
2022/09/10 08:36:06;;;;;;;3.60;1.90;;;;;;;21.91;83.68;99765.81;4954998;28;20044;-76
2022/09/10 08:38:35;;;;;;;2.38;1.40;;;;;;;21.96;83.13;99781.97;4975392;28;20084;-83
2022/09/10 08:41:12;;;;;;;2.15;1.40;;;;;;;22.14;82.09;99783.41;4945993;28;20529;-84
2022/09/10 08:43:43;;;;;;;2.88;1.60;;;;;;;22.27;81.12;99784.38;4958159;28;20039;-84
2022/09/10 08:46:23;;;;;;;2.33;1.45;;;;;;;22.49;79.43;99771.34;4958796;28;20089;-83
2022/09/10 08:48:54;;;;;;;6.68;1.63;;;;;;;22.67;77.18;99779.19;4952591;28;20042;-82
2022/09/10 08:51:38;;;;;;;1.88;1.20;;;;;;;22.96;75.60;99778.44;4955242;28;20039;-82
2022/09/10 08:54:16;;;;;;;6.35;1.60;;;;;;;22.78;77.58;99774.22;4960654;28;20102;-82
2022/09/10 08:56:42;;;;;;;2.55;1.30;;;;;;;22.95;76.40;99787.44;4977669;28;20109;-82
2022/09/10 08:59:21;;;;;;;2.85;1.50;;;;;;;23.13;74.42;99784.69;4961135;28;20110;-82
2022/09/10 09:01:57;;;;;;;2.65;1.10;;;;;;;22.57;75.37;99792.09;4959814;28;20106;-82
2022/09/10 09:04:28;;;;;;;1.88;1.35;;;;;;;22.72;74.62;99790.47;4967245;28;20082;-81
2022/09/10 09:07:00;;;;;;;2.58;1.30;;;;;;;22.99;74.16;99793.56;4962459;28;20039;-81
2022/09/10 09:09:25;;;;;;;2.80;1.27;;;;;;;22.97;72.83;99799.00;4944159;28;20050;-81
2022/09/10 09:11:56;;;;;;;5.80;1.48;;;;;;;23.11;73.09;99781.63;4962217;28;20038;-82
2022/09/10 09:14:35;;;;;;;3.58;1.25;;;;;;;23.02;69.10;99787.63;4976657;28;20074;-75
2022/09/10 09:17:17;;;;;;;2.55;1.35;;;;;;;23.42;70.21;99787.97;4960076;28;20054;-75
2022/09/10 09:19:53;;;;;;;2.90;1.20;;;;;;;23.54;70.52;99787.34;4973547;28;20054;-75
2022/09/10 09:22:19;;;;;;;2.58;1.23;;;;;;;23.41;71.26;99786.47;4972996;28;20424;-75
2022/09/10 09:24:59;;;;;;;2.33;1.20;;;;;;;23.42;68.25;99787.97;4960203;28;20035;-76
2022/09/10 09:27:28;;;;;;;3.50;1.13;;;;;;;22.78;70.02;99774.22;4966420;28;20039;-76
2022/09/10 09:30:03;;;;;;;2.30;1.30;;;;;;;22.52;71.94;99775.97;4969558;28;20042;-76
2022/09/10 09:32:36;;;;;;;3.75;1.52;;;;;;;22.77;68.10;99769.84;4955671;28;20182;-75
2022/09/10 09:35:27;;;;;;;3.00;1.50;;;;;;;23.17;67.80;99773.81;4957244;28;20031;-76
2022/09/10 09:38:06;;;;;;;4.40;1.30;;;;;;;23.44;63.46;99786.19;4977303;28;20092;-76
2022/09/10 09:40:48;;;;;;;3.10;1.08;;;;;;;23.26;63.25;99775.53;4964621;28;20043;-77
2022/09/10 09:43:30;;;;;;;2.88;1.55;;;;;;;22.62;63.57;99774.31;4973469;28;20043;-76
2022/09/10 09:45:57;;;;;;;2.10;1.30;;;;;;;22.53;65.05;99777.47;4973024;28;20081;-76
2022/09/10 09:48:24;;;;;;;3.75;1.23;;;;;;;23.09;65.56;99772.16;4973142;28;20038;-76
2022/09/10 09:50:53;;;;;;;1.33;1.20;;;;;;;23.24;62.10;99766.84;4952117;28;20520;-76
2022/09/10 09:53:26;;;;;;;3.25;1.00;;;;;;;23.10;62.46;99768.00;4919645;29;20048;-76
2022/09/10 09:55:54;;;;;;;3.15;1.38;;;;;;;23.18;64.23;99766.88;4935911;29;20054;-76
2022/09/10 09:58:19;;;;;;;2.85;1.90;;;;;;;23.72;63.33;99768.09;4918835;29;20067;-75
2022/09/10 10:00:51;;;;;;;3.10;1.50;;;;;;;23.87;63.66;99765.56;4935468;29;20095;-75
2022/09/10 10:03:20;;;;;;;3.63;1.20;;;;;;;24.29;61.77;99758.28;4919248;29;20490;-75
2022/09/10 10:05:47;;;;;;;3.08;1.33;;;;;;;24.59;58.67;99770.94;4917370;29;20035;-75
2022/09/10 10:08:36;;;;;;;1.95;1.17;;;;;;;24.61;58.03;99765.50;4935939;29;20048;-75
2022/09/10 10:11:03;;;;;;;1.00;0.90;;;;;;;24.69;58.41;99759.97;4935660;29;20573;-75
2022/09/10 10:13:37;;;;;;;3.75;1.40;;;;;;;24.76;56.48;99758.53;4918816;29;20493;-83
2022/09/10 10:16:32;;;;;;;2.00;1.02;;;;;;;24.59;56.78;99756.00;4935775;29;20079;-82
2022/09/10 10:18:58;;;;;;;2.58;1.13;;;;;;;24.57;57.87;99759.38;4918149;29;20048;-83
2022/09/10 10:21:33;;;;;;;2.75;1.15;;;;;;;24.77;55.39;99763.69;4935083;29;20182;-82
2022/09/10 10:23:59;;;;;;;1.30;1.10;;;;;;;25.03;54.92;99755.22;4913722;29;20138;-82
2022/09/10 10:26:29;;;;;;;3.88;1.48;;;;;;;25.29;55.60;99759.41;4930341;28;20047;-83
2022/09/10 10:28:58;;;;;;;2.58;1.23;;;;;;;25.24;55.57;99751.75;4927394;29;20048;-83
2022/09/10 10:31:32;;;;;;;3.22;1.23;;;;;;;24.94;55.61;99746.41;4936045;29;20055;-77
2022/09/10 10:34:27;;;;;;;1.60;0.95;;;;;;;24.94;55.61;99741.50;4945365;28;20484;-75
2022/09/10 10:37:04;;;;;;;2.75;0.90;;;;;;;24.82;55.90;99751.50;4941499;28;20051;-75
2022/09/10 10:39:59;;;;;;;2.05;1.20;;;;;;;25.12;55.54;99744.75;4928684;29;20043;-76
2022/09/10 10:42:37;;;;;;;1.70;1.13;;;;;;;25.01;54.96;99749.34;4949992;29;20520;-75
2022/09/10 10:45:21;;;;;;;2.92;1.30;;;;;;;25.02;54.89;99748.06;4935231;29;20051;-76
2022/09/10 10:47:57;;;;;;;1.30;0.93;;;;;;;24.98;54.87;99755.34;4941376;28;20397;-75
2022/09/10 10:50:30;;;;;;;2.97;1.30;;;;;;;24.90;55.21;99762.97;4922856;29;20056;-76
2022/09/10 10:53:18;;;;;;;3.47;0.95;;;;;;;25.27;53.70;99759.97;4953372;28;20438;-76
2022/09/10 10:55:50;;;;;;;2.08;1.13;;;;;;;25.45;52.47;99753.41;4940604;28;20521;-75
2022/09/10 10:58:48;;;;;;;2.63;1.00;;;;;;;25.20;53.13;99745.63;4966549;28;20493;-76
2022/09/10 11:01:28;;;;;;;2.72;1.50;;;;;;;25.79;52.50;99739.31;4941781;28;20043;-75
2022/09/10 11:03:59;;;;;;;2.92;1.40;;;;;;;25.94;52.40;99739.47;4950595;28;20126;-75
2022/09/10 11:06:30;;;;;;;1.88;0.85;;;;;;;25.83;51.72;99742.56;4951503;28;20467;-74
2022/09/10 11:09:12;;;;;;;2.78;0.90;;;;;;;25.95;51.53;99732.47;4947692;28;20055;-76
2022/09/10 11:11:54;;;;;;;3.95;1.15;;;;;;;26.03;50.74;99740.31;4941702;28;20071;-76
2022/09/10 11:14:22;;;;;;;2.00;1.15;;;;;;;25.61;51.50;99731.66;4952613;28;20055;-76
2022/09/10 11:16:55;;;;;;;2.13;1.17;;;;;;;25.84;50.33;99732.72;4950704;28;20388;-74
2022/09/10 11:19:27;;;;;;;4.17;1.43;;;;;;;25.52;50.43;99744.25;4946336;29;20036;-75
2022/09/10 11:21:57;;;;;;;3.33;0.90;;;;;;;26.16;51.12;99729.69;4933881;29;20307;-74
2022/09/10 11:24:33;;;;;;;1.25;1.05;;;;;;;25.86;48.36;99738.63;4952698;28;20047;-75
2022/09/10 11:27:01;;;;;;;2.35;1.10;;;;;;;25.85;50.10;99724.94;4952154;28;20075;-75
2022/09/10 11:29:40;;;;;;;1.70;0.68;;;;;;;25.84;49.34;99723.44;4949946;28;20437;-74
2022/09/10 11:32:25;;;;;;;1.42;1.00;;;;;;;26.04;48.10;99724.81;4946087;28;20047;-74
2022/09/10 11:35:04;;;;;;;1.58;1.00;;;;;;;26.12;47.65;99719.97;4966285;28;20199;-74
2022/09/10 11:37:49;;;;;;;2.53;1.10;;;;;;;26.44;47.43;99723.34;4951165;28;20207;-74
2022/09/10 11:40:23;;;;;;;3.08;1.00;;;;;;;26.45;47.03;99730.53;4951993;28;20046;-74
2022/09/10 11:42:52;;;;;;;3.47;1.08;;;;;;;26.58;48.23;99716.25;4952185;28;20508;-74
2022/09/10 11:45:18;;;;;;;2.88;1.10;;;;;;;26.60;48.60;99724.25;4940115;29;20035;-76
2022/09/10 11:47:59;;;;;;;2.28;0.80;;;;;;;26.05;47.22;99714.94;4952257;28;20138;-76